Terminal Aerodrome Forecast
Issued by NWS Pocatello, ID

Home | Current Version | Previous Version | Text Only | Print | Product List | Glossary On
Versions: 1 2 3 4 5 6 7 8 9 10 11 12 13 14 15 16 17 18 19
000
FTUS45 KPIH 220638 AAA
TAFIDA
TAF AMD
KIDA 220638Z 2207/2306 VRB05KT P6SM BKN010 OVC020
      TEMPO 2207/2209 SCT010
     FM221900 22009KT P6SM OVC040
     FM230500 36006KT P6SM BKN120=

USA.gov is the U.S. government's official web portal to all federal, state and local government web resources and services.